sensor_id;sensor_type;location;lat;lon;timestamp;pressure;altitude;pressure_sealevel;temperature;humidity
13434;BME280;6789;47.678;9.158;2023-02-21T00:05:16;97352.25;;;3.47;100.00
13434;BME280;6789;47.678;9.158;2023-02-21T00:10:26;97349.19;;;3.43;100.00
13434;BME280;6789;47.678;9.158;2023-02-21T00:15:36;97341.06;;;3.38;100.00
13434;BME280;6789;47.678;9.158;2023-02-21T00:20:46;97334.59;;;3.42;100.00
13434;BME280;6789;47.678;9.158;2023-02-21T00:25:57;97327.66;;;3.35;100.00
13434;BME280;6789;47.678;9.158;2023-02-21T00:31:07;97333.00;;;3.33;100.00
13434;BME280;6789;47.678;9.158;2023-02-21T00:36:18;97329.59;;;3.33;100.00
13434;BME280;6789;47.678;9.158;2023-02-21T00:41:28;97316.16;;;3.29;100.00
13434;BME280;6789;47.678;9.158;2023-02-21T00:46:38;97313.41;;;3.23;100.00
13434;BME280;6789;47.678;9.158;2023-02-21T00:51:49;97317.66;;;3.08;100.00
13434;BME280;6789;47.678;9.158;2023-02-21T00:57:00;97321.72;;;2.94;100.00
13434;BME280;6789;47.678;9.158;2023-02-21T01:02:11;97320.09;;;2.85;100.00
13434;BME280;6789;47.678;9.158;2023-02-21T01:07:21;97312.31;;;2.85;100.00
13434;BME280;6789;47.678;9.158;2023-02-21T01:12:32;97306.81;;;2.88;100.00
13434;BME280;6789;47.678;9.158;2023-02-21T01:17:42;97312.81;;;2.81;100.00
13434;BME280;6789;47.678;9.158;2023-02-21T01:22:53;97308.94;;;2.77;100.00
13434;BME280;6789;47.678;9.158;2023-02-21T01:28:03;97316.03;;;2.75;100.00
13434;BME280;6789;47.678;9.158;2023-02-21T01:33:13;97306.31;;;2.69;100.00
13434;BME280;6789;47.678;9.158;2023-02-21T01:38:24;97304.22;;;2.96;100.00
13434;BME280;6789;47.678;9.158;2023-02-21T01:43:34;97309.41;;;2.81;100.00
13434;BME280;6789;47.678;9.158;2023-02-21T01:48:46;97295.31;;;2.99;100.00
13434;BME280;6789;47.678;9.158;2023-02-21T01:53:59;97299.03;;;3.04;100.00
13434;BME280;6789;47.678;9.158;2023-02-21T01:59:09;97286.56;;;2.92;100.00
13434;BME280;6789;47.678;9.158;2023-02-21T02:04:20;97285.97;;;2.66;100.00
13434;BME280;6789;47.678;9.158;2023-02-21T02:09:30;97275.28;;;2.53;100.00
13434;BME280;6789;47.678;9.158;2023-02-21T02:15:17;97283.69;;;2.47;100.00
13434;BME280;6789;47.678;9.158;2023-02-21T02:31:27;97287.41;;;2.45;100.00
13434;BME280;6789;47.678;9.158;2023-02-21T02:36:51;97283.53;;;2.49;100.00
13434;BME280;6789;47.678;9.158;2023-02-21T02:42:04;97278.66;;;2.38;100.00
13434;BME280;6789;47.678;9.158;2023-02-21T02:47:01;97278.47;;;2.23;100.00
13434;BME280;6789;47.678;9.158;2023-02-21T02:52:05;97273.28;;;2.15;100.00
13434;BME280;6789;47.678;9.158;2023-02-21T02:57:01;97277.16;;;2.04;100.00
13434;BME280;6789;47.678;9.158;2023-02-21T03:18:35;97269.25;;;2.13;100.00
13434;BME280;6789;47.678;9.158;2023-02-21T03:23:31;97252.59;;;2.23;100.00
13434;BME280;6789;47.678;9.158;2023-02-21T03:28:25;97248.88;;;2.34;100.00
13434;BME280;6789;47.678;9.158;2023-02-21T03:33:18;97252.75;;;2.22;100.00
13434;BME280;6789;47.678;9.158;2023-02-21T03:38:10;97253.06;;;2.11;100.00
13434;BME280;6789;47.678;9.158;2023-02-21T03:43:04;97245.63;;;2.08;100.00
13434;BME280;6789;47.678;9.158;2023-02-21T03:47:58;97240.31;;;2.10;100.00
13434;BME280;6789;47.678;9.158;2023-02-21T03:52:50;97250.47;;;2.03;100.00
13434;BME280;6789;47.678;9.158;2023-02-21T03:57:42;97249.66;;;2.03;100.00
13434;BME280;6789;47.678;9.158;2023-02-21T04:02:33;97240.59;;;1.99;100.00
13434;BME280;6789;47.678;9.158;2023-02-21T04:07:25;97241.22;;;1.93;100.00
13434;BME280;6789;47.678;9.158;2023-02-21T04:12:17;97242.66;;;1.79;100.00
13434;BME280;6789;47.678;9.158;2023-02-21T04:17:09;97234.25;;;1.77;100.00
13434;BME280;6789;47.678;9.158;2023-02-21T04:22:01;97236.53;;;1.80;100.00
13434;BME280;6789;47.678;9.158;2023-02-21T04:26:53;97235.88;;;1.78;100.00
13434;BME280;6789;47.678;9.158;2023-02-21T04:31:44;97238.78;;;1.83;100.00
13434;BME280;6789;47.678;9.158;2023-02-21T04:36:37;97236.06;;;1.85;100.00
13434;BME280;6789;47.678;9.158;2023-02-21T04:41:29;97241.22;;;1.85;100.00
13434;BME280;6789;47.678;9.158;2023-02-21T04:46:20;97246.06;;;1.88;100.00
13434;BME280;6789;47.678;9.158;2023-02-21T04:51:15;97247.53;;;1.82;100.00
13434;BME280;6789;47.678;9.158;2023-02-21T04:56:07;97260.91;;;1.78;100.00
13434;BME280;6789;47.678;9.158;2023-02-21T05:00:59;97263.94;;;1.65;100.00
13434;BME280;6789;47.678;9.158;2023-02-21T05:06:05;97269.09;;;1.57;100.00
13434;BME280;6789;47.678;9.158;2023-02-21T05:10:59;97267.38;;;1.40;100.00
13434;BME280;6789;47.678;9.158;2023-02-21T05:16:05;97266.03;;;1.29;100.00
13434;BME280;6789;47.678;9.158;2023-02-21T05:21:12;97271.47;;;1.18;100.00
13434;BME280;6789;47.678;9.158;2023-02-21T05:26:12;97277.31;;;1.20;100.00
13434;BME280;6789;47.678;9.158;2023-02-21T05:31:18;97270.69;;;1.25;100.00
13434;BME280;6789;47.678;9.158;2023-02-21T05:36:24;97264.47;;;1.36;100.00
13434;BME280;6789;47.678;9.158;2023-02-21T05:41:30;97265.50;;;1.50;100.00
13434;BME280;6789;47.678;9.158;2023-02-21T05:46:30;97258.44;;;1.60;100.00
13434;BME280;6789;47.678;9.158;2023-02-21T05:51:25;97263.47;;;1.70;100.00
13434;BME280;6789;47.678;9.158;2023-02-21T05:56:20;97262.69;;;1.77;100.00
13434;BME280;6789;47.678;9.158;2023-02-21T06:01:13;97270.50;;;1.93;100.00
13434;BME280;6789;47.678;9.158;2023-02-21T06:06:19;97261.78;;;2.02;100.00
13434;BME280;6789;47.678;9.158;2023-02-21T06:11:22;97251.13;;;2.05;100.00
13434;BME280;6789;47.678;9.158;2023-02-21T06:16:34;97258.25;;;2.11;100.00
13434;BME280;6789;47.678;9.158;2023-02-21T06:21:28;97255.50;;;2.20;100.00
13434;BME280;6789;47.678;9.158;2023-02-21T06:26:34;97257.44;;;2.11;100.00
13434;BME280;6789;47.678;9.158;2023-02-21T06:31:28;97253.72;;;2.13;100.00
13434;BME280;6789;47.678;9.158;2023-02-21T06:36:24;97250.16;;;2.22;100.00
13434;BME280;6789;47.678;9.158;2023-02-21T06:41:20;97248.75;;;2.27;100.00
13434;BME280;6789;47.678;9.158;2023-02-21T06:46:21;97250.84;;;2.32;100.00
13434;BME280;6789;47.678;9.158;2023-02-21T06:51:14;97251.50;;;2.42;100.00
13434;BME280;6789;47.678;9.158;2023-02-21T06:56:20;97249.41;;;2.53;100.00
13434;BME280;6789;47.678;9.158;2023-02-21T07:01:12;97254.91;;;2.58;100.00
13434;BME280;6789;47.678;9.158;2023-02-21T07:06:05;97263.16;;;2.62;100.00
13434;BME280;6789;47.678;9.158;2023-02-21T07:10:57;97270.44;;;2.66;100.00
13434;BME280;6789;47.678;9.158;2023-02-21T07:15:49;97278.66;;;2.78;100.00
13434;BME280;6789;47.678;9.158;2023-02-21T07:20:46;97290.78;;;3.01;100.00
13434;BME280;6789;47.678;9.158;2023-02-21T07:25:51;97295.94;;;3.17;100.00
13434;BME280;6789;47.678;9.158;2023-02-21T07:31:14;97300.00;;;3.19;100.00
13434;BME280;6789;47.678;9.158;2023-02-21T07:36:10;97308.69;;;3.42;100.00
13434;BME280;6789;47.678;9.158;2023-02-21T07:41:17;97309.28;;;3.52;100.00
13434;BME280;6789;47.678;9.158;2023-02-21T07:46:27;97312.16;;;3.73;100.00
13434;BME280;6789;47.678;9.158;2023-02-21T07:51:20;97307.19;;;3.94;100.00
13434;BME280;6789;47.678;9.158;2023-02-21T07:56:12;97319.75;;;4.13;100.00
13434;BME280;6789;47.678;9.158;2023-02-21T08:01:23;97310.63;;;4.24;100.00
13434;BME280;6789;47.678;9.158;2023-02-21T08:06:30;97314.44;;;4.36;100.00
13434;BME280;6789;47.678;9.158;2023-02-21T08:11:23;97314.09;;;4.39;100.00
13434;BME280;6789;47.678;9.158;2023-02-21T08:16:16;97321.47;;;4.50;100.00
13434;BME280;6789;47.678;9.158;2023-02-21T08:21:13;97314.47;;;4.59;100.00
13434;BME280;6789;47.678;9.158;2023-02-21T08:26:19;97306.09;;;4.71;100.00
13434;BME280;6789;47.678;9.158;2023-02-21T08:31:40;97302.56;;;4.87;100.00
13434;BME280;6789;47.678;9.158;2023-02-21T08:36:55;97305.13;;;5.09;100.00
13434;BME280;6789;47.678;9.158;2023-02-21T08:42:03;97302.09;;;5.20;100.00
13434;BME280;6789;47.678;9.158;2023-02-21T08:47:10;97293.31;;;5.35;100.00
13434;BME280;6789;47.678;9.158;2023-02-21T08:52:03;97297.38;;;5.52;100.00
13434;BME280;6789;47.678;9.158;2023-02-21T08:57:10;97303.59;;;5.80;100.00
13434;BME280;6789;47.678;9.158;2023-02-21T09:02:24;97290.94;;;5.77;100.00
13434;BME280;6789;47.678;9.158;2023-02-21T09:07:38;97294.53;;;5.90;100.00
13434;BME280;6789;47.678;9.158;2023-02-21T09:12:41;97298.28;;;6.02;100.00
13434;BME280;6789;47.678;9.158;2023-02-21T09:23:36;97286.94;;;6.45;100.00
13434;BME280;6789;47.678;9.158;2023-02-21T09:28:53;97285.22;;;6.73;100.00
13434;BME280;6789;47.678;9.158;2023-02-21T09:33:54;97289.06;;;6.77;100.00
13434;BME280;6789;47.678;9.158;2023-02-21T09:39:32;97278.25;;;7.01;100.00
13434;BME280;6789;47.678;9.158;2023-02-21T09:44:59;97265.31;;;7.13;99.46
13434;BME280;6789;47.678;9.158;2023-02-21T09:51:13;97251.63;;;7.39;98.33
13434;BME280;6789;47.678;9.158;2023-02-21T09:56:38;97253.19;;;7.61;97.34
13434;BME280;6789;47.678;9.158;2023-02-21T10:02:39;97244.47;;;7.87;95.22
13434;BME280;6789;47.678;9.158;2023-02-21T10:19:33;97240.66;;;8.30;95.22
13434;BME280;6789;47.678;9.158;2023-02-21T10:24:27;97231.81;;;8.44;94.23
13434;BME280;6789;47.678;9.158;2023-02-21T10:29:50;97224.44;;;8.67;92.03
13434;BME280;6789;47.678;9.158;2023-02-21T10:35:05;97227.84;;;8.80;91.87
13434;BME280;6789;47.678;9.158;2023-02-21T10:45:46;97210.72;;;9.10;89.45
13434;BME280;6789;47.678;9.158;2023-02-21T10:51:27;97213.94;;;9.25;87.95
13434;BME280;6789;47.678;9.158;2023-02-21T10:56:33;97209.66;;;9.43;87.49
13434;BME280;6789;47.678;9.158;2023-02-21T11:01:41;97204.41;;;9.56;87.46
13434;BME280;6789;47.678;9.158;2023-02-21T11:07:15;97196.69;;;9.74;85.53
13434;BME280;6789;47.678;9.158;2023-02-21T11:12:36;97181.72;;;10.00;84.28
13434;BME280;6789;47.678;9.158;2023-02-21T11:17:43;97173.03;;;10.31;82.36
13434;BME280;6789;47.678;9.158;2023-02-21T11:23:02;97170.03;;;10.58;82.17
13434;BME280;6789;47.678;9.158;2023-02-21T11:33:10;97169.03;;;10.83;78.57
13434;BME280;6789;47.678;9.158;2023-02-21T11:38:40;97159.97;;;10.79;78.42
13434;BME280;6789;47.678;9.158;2023-02-21T11:43:53;97149.31;;;10.99;78.07
13434;BME280;6789;47.678;9.158;2023-02-21T11:49:21;97144.50;;;10.96;77.83
13434;BME280;6789;47.678;9.158;2023-02-21T11:54:29;97126.03;;;10.60;78.48
13434;BME280;6789;47.678;9.158;2023-02-21T12:00:12;97116.34;;;10.36;79.72
13434;BME280;6789;47.678;9.158;2023-02-21T12:05:47;97099.72;;;10.24;79.58
13434;BME280;6789;47.678;9.158;2023-02-21T12:16:45;97080.97;;;10.69;77.21
13434;BME280;6789;47.678;9.158;2023-02-21T12:22:53;97071.31;;;10.88;76.79
13434;BME280;6789;47.678;9.158;2023-02-21T12:34:02;97039.53;;;11.14;75.93
13434;BME280;6789;47.678;9.158;2023-02-21T12:45:16;97012.38;;;11.55;73.27
13434;BME280;6789;47.678;9.158;2023-02-21T12:50:34;96997.06;;;11.52;72.42
13434;BME280;6789;47.678;9.158;2023-02-21T12:55:51;96988.56;;;11.50;72.91
13434;BME280;6789;47.678;9.158;2023-02-21T13:01:10;96986.63;;;11.46;73.52
13434;BME280;6789;47.678;9.158;2023-02-21T13:06:34;96972.19;;;11.37;74.19
13434;BME280;6789;47.678;9.158;2023-02-21T13:11:42;96965.53;;;11.52;74.36
13434;BME280;6789;47.678;9.158;2023-02-21T13:16:53;96952.63;;;11.51;74.02
13434;BME280;6789;47.678;9.158;2023-02-21T13:28:22;96938.22;;;12.06;72.34
13434;BME280;6789;47.678;9.158;2023-02-21T13:38:35;96912.28;;;12.20;69.51
13434;BME280;6789;47.678;9.158;2023-02-21T13:43:51;96906.44;;;12.18;68.55
13434;BME280;6789;47.678;9.158;2023-02-21T13:49:38;96898.19;;;12.38;67.86
13434;BME280;6789;47.678;9.158;2023-02-21T14:21:49;96859.81;;;13.04;62.31
13434;BME280;6789;47.678;9.158;2023-02-21T14:27:36;96847.78;;;13.08;62.90
13434;BME280;6789;47.678;9.158;2023-02-21T14:32:46;96840.22;;;13.11;62.78
13434;BME280;6789;47.678;9.158;2023-02-21T14:38:23;96841.41;;;13.20;62.14
13434;BME280;6789;47.678;9.158;2023-02-21T14:49:50;96822.53;;;12.95;62.36
13434;BME280;6789;47.678;9.158;2023-02-21T14:55:48;96816.59;;;13.16;61.16
13434;BME280;6789;47.678;9.158;2023-02-21T15:01:39;96804.56;;;13.37;59.41
13434;BME280;6789;47.678;9.158;2023-02-21T15:07:03;96816.63;;;13.33;59.21
13434;BME280;6789;47.678;9.158;2023-02-21T15:12:16;96798.25;;;13.21;58.92
13434;BME280;6789;47.678;9.158;2023-02-21T15:17:17;96787.97;;;13.20;59.46
13434;BME280;6789;47.678;9.158;2023-02-21T15:22:26;96789.72;;;13.31;59.29
13434;BME280;6789;47.678;9.158;2023-02-21T15:27:36;96779.66;;;13.44;59.01
13434;BME280;6789;47.678;9.158;2023-02-21T15:38:39;96767.69;;;13.20;60.05
13434;BME280;6789;47.678;9.158;2023-02-21T15:43:57;96756.25;;;13.15;59.98
13434;BME280;6789;47.678;9.158;2023-02-21T15:49:24;96756.09;;;13.05;59.78
13434;BME280;6789;47.678;9.158;2023-02-21T15:54:48;96760.78;;;12.86;59.17
13434;BME280;6789;47.678;9.158;2023-02-21T16:00:25;96755.88;;;12.79;60.68
13434;BME280;6789;47.678;9.158;2023-02-21T16:05:32;96756.97;;;12.66;60.16
13434;BME280;6789;47.678;9.158;2023-02-21T16:10:39;96758.16;;;12.59;60.56
13434;BME280;6789;47.678;9.158;2023-02-21T16:15:46;96742.41;;;12.47;60.71
13434;BME280;6789;47.678;9.158;2023-02-21T16:21:01;96743.78;;;12.22;61.95
13434;BME280;6789;47.678;9.158;2023-02-21T16:31:30;96736.66;;;11.83;63.11
13434;BME280;6789;47.678;9.158;2023-02-21T16:36:37;96736.94;;;11.59;64.24
13434;BME280;6789;47.678;9.158;2023-02-21T16:41:45;96734.63;;;11.39;65.33
13434;BME280;6789;47.678;9.158;2023-02-21T16:46:51;96733.03;;;11.16;66.32
13434;BME280;6789;47.678;9.158;2023-02-21T16:51:57;96739.88;;;10.94;67.62
13434;BME280;6789;47.678;9.158;2023-02-21T16:57:06;96738.66;;;10.67;68.45
13434;BME280;6789;47.678;9.158;2023-02-21T17:02:16;96738.31;;;10.34;70.21
13434;BME280;6789;47.678;9.158;2023-02-21T17:07:23;96740.25;;;10.09;71.63
13434;BME280;6789;47.678;9.158;2023-02-21T17:12:30;96748.97;;;9.86;72.57
13434;BME280;6789;47.678;9.158;2023-02-21T17:17:37;96756.88;;;9.61;74.30
13434;BME280;6789;47.678;9.158;2023-02-21T17:22:31;96754.25;;;9.43;75.55
13434;BME280;6789;47.678;9.158;2023-02-21T17:27:37;96751.56;;;9.32;77.05
13434;BME280;6789;47.678;9.158;2023-02-21T17:32:44;96756.38;;;9.11;77.79
13434;BME280;6789;47.678;9.158;2023-02-21T17:37:51;96763.97;;;8.94;78.73
13434;BME280;6789;47.678;9.158;2023-02-21T17:42:47;96768.69;;;8.79;79.84
13434;BME280;6789;47.678;9.158;2023-02-21T17:47:53;96768.38;;;8.63;80.41
13434;BME280;6789;47.678;9.158;2023-02-21T17:52:59;96767.88;;;8.48;81.94
13434;BME280;6789;47.678;9.158;2023-02-21T17:58:05;96764.34;;;8.36;83.03
13434;BME280;6789;47.678;9.158;2023-02-21T18:03:11;96760.41;;;8.21;83.43
13434;BME280;6789;47.678;9.158;2023-02-21T18:08:18;96770.28;;;8.06;84.43
13434;BME280;6789;47.678;9.158;2023-02-21T18:13:24;96774.09;;;7.97;85.39
13434;BME280;6789;47.678;9.158;2023-02-21T18:18:32;96788.03;;;7.84;86.92
13434;BME280;6789;47.678;9.158;2023-02-21T18:23:43;96783.03;;;7.77;87.64
13434;BME280;6789;47.678;9.158;2023-02-21T18:28:49;96785.09;;;7.55;88.96
13434;BME280;6789;47.678;9.158;2023-02-21T18:33:55;96777.88;;;7.44;91.22
13434;BME280;6789;47.678;9.158;2023-02-21T18:38:54;96768.25;;;7.38;91.88
13434;BME280;6789;47.678;9.158;2023-02-21T18:44:00;96772.66;;;7.44;92.54
13434;BME280;6789;47.678;9.158;2023-02-21T18:49:06;96766.25;;;7.47;92.05
13434;BME280;6789;47.678;9.158;2023-02-21T18:54:12;96774.47;;;7.50;91.22
13434;BME280;6789;47.678;9.158;2023-02-21T18:59:20;96780.13;;;7.34;91.90
13434;BME280;6789;47.678;9.158;2023-02-21T19:04:26;96776.72;;;7.14;92.76
13434;BME280;6789;47.678;9.158;2023-02-21T19:09:19;96771.50;;;6.89;92.73
13434;BME280;6789;47.678;9.158;2023-02-21T19:14:13;96777.50;;;6.63;94.77
13434;BME280;6789;47.678;9.158;2023-02-21T19:19:18;96776.66;;;6.50;95.55
13434;BME280;6789;47.678;9.158;2023-02-21T19:24:25;96770.06;;;6.47;97.11
13434;BME280;6789;47.678;9.158;2023-02-21T19:29:25;96775.47;;;6.46;96.07
13434;BME280;6789;47.678;9.158;2023-02-21T19:34:31;96774.84;;;6.44;96.48
13434;BME280;6789;47.678;9.158;2023-02-21T19:39:37;96764.63;;;6.49;95.77
13434;BME280;6789;47.678;9.158;2023-02-21T19:44:30;96772.44;;;6.49;95.62
13434;BME280;6789;47.678;9.158;2023-02-21T19:49:36;96764.63;;;6.42;95.87
13434;BME280;6789;47.678;9.158;2023-02-21T19:54:42;96767.81;;;6.32;97.33
13434;BME280;6789;47.678;9.158;2023-02-21T19:59:51;96764.97;;;6.27;97.92
13434;BME280;6789;47.678;9.158;2023-02-21T20:05:01;96762.16;;;6.15;98.15
13434;BME280;6789;47.678;9.158;2023-02-21T20:10:09;96756.34;;;6.13;99.73
13434;BME280;6789;47.678;9.158;2023-02-21T20:15:15;96758.34;;;6.11;100.00
13434;BME280;6789;47.678;9.158;2023-02-21T20:20:22;96756.50;;;6.05;100.00
13434;BME280;6789;47.678;9.158;2023-02-21T20:25:18;96760.88;;;5.92;100.00
13434;BME280;6789;47.678;9.158;2023-02-21T20:30:24;96762.03;;;5.83;100.00
13434;BME280;6789;47.678;9.158;2023-02-21T20:35:30;96750.16;;;5.74;100.00
13434;BME280;6789;47.678;9.158;2023-02-21T20:40:36;96755.53;;;5.66;100.00
13434;BME280;6789;47.678;9.158;2023-02-21T20:45:42;96758.28;;;5.58;100.00
13434;BME280;6789;47.678;9.158;2023-02-21T20:50:48;96763.84;;;5.49;100.00
13434;BME280;6789;47.678;9.158;2023-02-21T20:55:55;96762.75;;;5.37;100.00
13434;BME280;6789;47.678;9.158;2023-02-21T21:01:00;96765.91;;;5.26;100.00
13434;BME280;6789;47.678;9.158;2023-02-21T21:06:10;96765.13;;;5.32;100.00
13434;BME280;6789;47.678;9.158;2023-02-21T21:11:16;96765.66;;;5.21;100.00
13434;BME280;6789;47.678;9.158;2023-02-21T21:16:21;96758.63;;;5.15;100.00
13434;BME280;6789;47.678;9.158;2023-02-21T21:21:30;96752.44;;;5.16;100.00
13434;BME280;6789;47.678;9.158;2023-02-21T21:26:44;96760.59;;;5.13;100.00
13434;BME280;6789;47.678;9.158;2023-02-21T21:31:55;96758.78;;;5.07;100.00
13434;BME280;6789;47.678;9.158;2023-02-21T21:37:02;96768.31;;;5.00;100.00
13434;BME280;6789;47.678;9.158;2023-02-21T21:42:09;96766.97;;;4.83;100.00
13434;BME280;6789;47.678;9.158;2023-02-21T21:47:05;96762.31;;;4.72;100.00
13434;BME280;6789;47.678;9.158;2023-02-21T21:52:12;96755.03;;;4.61;100.00
13434;BME280;6789;47.678;9.158;2023-02-21T21:57:18;96760.69;;;4.50;100.00
13434;BME280;6789;47.678;9.158;2023-02-21T22:02:27;96762.63;;;4.42;100.00
13434;BME280;6789;47.678;9.158;2023-02-21T22:07:34;96765.28;;;4.27;100.00
13434;BME280;6789;47.678;9.158;2023-02-21T22:12:40;96756.38;;;4.16;100.00
13434;BME280;6789;47.678;9.158;2023-02-21T22:17:36;96753.44;;;4.04;100.00
13434;BME280;6789;47.678;9.158;2023-02-21T22:22:49;96750.00;;;4.18;100.00
13434;BME280;6789;47.678;9.158;2023-02-21T22:28:02;96758.97;;;4.16;100.00
13434;BME280;6789;47.678;9.158;2023-02-21T22:33:09;96752.06;;;4.22;100.00
13434;BME280;6789;47.678;9.158;2023-02-21T22:38:18;96744.19;;;4.16;100.00
13434;BME280;6789;47.678;9.158;2023-02-21T22:43:25;96744.47;;;4.07;100.00
13434;BME280;6789;47.678;9.158;2023-02-21T22:48:35;96731.00;;;3.97;100.00
13434;BME280;6789;47.678;9.158;2023-02-21T22:53:45;96726.91;;;3.88;100.00
13434;BME280;6789;47.678;9.158;2023-02-21T22:58:56;96719.03;;;3.75;100.00
13434;BME280;6789;47.678;9.158;2023-02-21T23:04:04;96719.13;;;3.67;100.00
13434;BME280;6789;47.678;9.158;2023-02-21T23:09:21;96729.38;;;3.60;100.00
13434;BME280;6789;47.678;9.158;2023-02-21T23:14:27;96716.16;;;3.55;100.00
13434;BME280;6789;47.678;9.158;2023-02-21T23:19:35;96716.13;;;3.70;100.00
13434;BME280;6789;47.678;9.158;2023-02-21T23:24:42;96707.38;;;3.71;100.00
13434;BME280;6789;47.678;9.158;2023-02-21T23:29:50;96710.72;;;3.65;100.00
13434;BME280;6789;47.678;9.158;2023-02-21T23:34:56;96711.88;;;3.62;100.00
13434;BME280;6789;47.678;9.158;2023-02-21T23:40:04;96707.81;;;3.74;100.00
13434;BME280;6789;47.678;9.158;2023-02-21T23:45:12;96706.25;;;3.59;100.00
13434;BME280;6789;47.678;9.158;2023-02-21T23:50:23;96708.78;;;3.38;100.00
13434;BME280;6789;47.678;9.158;2023-02-21T23:55:35;96707.63;;;3.26;100.00
